createdAt,value
2023-03-31T00:02:06.582Z,100436.64
2023-03-31T00:04:36.333Z,100423.69
2023-03-31T00:07:08.223Z,100423.97
2023-03-31T00:09:38.216Z,100420.15
2023-03-31T00:12:09.632Z,100414.11
2023-03-31T00:14:39.827Z,100404.21
2023-03-31T00:17:11.377Z,100399.67
2023-03-31T00:19:41.818Z,100398.27
2023-03-31T00:22:11.835Z,100393.20
2023-03-31T00:24:41.672Z,100392.87
2023-03-31T00:27:11.558Z,100386.33
2023-03-31T00:29:41.676Z,100386.33
2023-03-31T00:32:11.801Z,100381.98
2023-03-31T00:34:41.805Z,100381.84
2023-03-31T00:37:13.257Z,100377.97
2023-03-31T00:39:43.404Z,100378.09
2023-03-31T00:42:13.622Z,100379.11
2023-03-31T00:45:18.272Z,100377.45
2023-03-31T00:47:51.805Z,100375.22
2023-03-31T00:50:29.031Z,100370.88
2023-03-31T00:53:04.973Z,100370.41
2023-03-31T00:55:40.745Z,100370.41
2023-03-31T00:58:14.487Z,100356.08
2023-03-31T01:00:44.846Z,100342.08
2023-03-31T01:03:15.885Z,100337.70
2023-03-31T01:05:51.935Z,100326.09
2023-03-31T01:08:25.895Z,100320.09
2023-03-31T01:11:04.737Z,100306.73
2023-03-31T01:13:37.775Z,100296.05
2023-03-31T01:16:11.992Z,100297.30
2023-03-31T01:18:43.528Z,100293.38
2023-03-31T01:21:40.310Z,100271.75
2023-03-31T01:24:20.679Z,100278.42
2023-03-31T01:27:09.775Z,100280.19
2023-03-31T01:29:42.754Z,100265.92
2023-03-31T01:32:30.336Z,100258.79
2023-03-31T01:35:24.352Z,100255.73
2023-03-31T01:38:13.573Z,100255.36
2023-03-31T01:41:19.320Z,100252.33
2023-03-31T01:44:25.438Z,100247.70
2023-03-31T01:46:58.313Z,100235.70
2023-03-31T01:49:45.848Z,100235.70
2023-03-31T01:52:24.099Z,100225.84
2023-03-31T01:55:15.938Z,100224.53
2023-03-31T01:57:54.529Z,100210.30
2023-03-31T02:00:36.294Z,100205.67
2023-03-31T02:03:14.788Z,100197.41
2023-03-31T02:05:47.626Z,100192.12
2023-03-31T02:08:26.040Z,100193.16
2023-03-31T02:10:57.563Z,100183.16
2023-03-31T02:13:30.290Z,100173.59
2023-03-31T02:16:03.261Z,100161.14
2023-03-31T02:18:36.741Z,100163.57
2023-03-31T02:21:08.726Z,100152.88
2023-03-31T02:23:39.596Z,100142.33
2023-03-31T02:26:29.430Z,100133.83
2023-03-31T02:29:00.136Z,100132.47
2023-03-31T02:31:52.551Z,100120.56
2023-03-31T02:34:22.480Z,100110.86
2023-03-31T02:36:52.750Z,100106.14
2023-03-31T02:39:31.288Z,100107.12
2023-03-31T02:42:02.977Z,100100.00
2023-03-31T02:44:32.859Z,100090.91
2023-03-31T02:47:04.912Z,100077.63
2023-03-31T02:49:38.099Z,100076.70
2023-03-31T02:52:41.042Z,100067.00
2023-03-31T02:55:33.038Z,100055.75
2023-03-31T02:58:15.273Z,100040.30
2023-03-31T03:01:08.618Z,100027.60
2023-03-31T03:03:47.501Z,100027.60
2023-03-31T03:06:33.408Z,100017.88
2023-03-31T03:09:17.079Z,100014.16
2023-03-31T03:12:06.619Z,100017.13
2023-03-31T03:14:51.509Z,99991.86
2023-03-31T03:17:30.052Z,99991.86
2023-03-31T03:20:04.611Z,99986.31
2023-03-31T03:22:34.111Z,99987.08
2023-03-31T03:25:05.513Z,99982.21
2023-03-31T03:27:35.887Z,99980.64
2023-03-31T03:30:10.003Z,99969.98
2023-03-31T03:32:41.291Z,99971.91
2023-03-31T03:35:11.774Z,99960.11
2023-03-31T03:37:42.211Z,99949.52
2023-03-31T03:40:14.440Z,99944.21
2023-03-31T03:42:44.339Z,99932.00
2023-03-31T03:45:13.949Z,99927.27
2023-03-31T03:47:43.874Z,99931.66
2023-03-31T03:50:16.207Z,99930.73
2023-03-31T03:52:46.875Z,99925.91
2023-03-31T03:55:17.779Z,99913.45
2023-03-31T03:57:47.619Z,99917.42
2023-03-31T04:00:18.099Z,99921.00
2023-03-31T04:02:48.002Z,99917.86
2023-03-31T04:05:17.908Z,99906.74
2023-03-31T04:07:47.782Z,99904.40
2023-03-31T04:10:17.893Z,99891.56
2023-03-31T04:12:47.713Z,99885.08
2023-03-31T04:15:17.434Z,99877.05
2023-03-31T04:17:48.969Z,99873.47
2023-03-31T04:20:19.725Z,99855.23
2023-03-31T04:22:50.672Z,99851.86
2023-03-31T04:25:21.971Z,99840.51
2023-03-31T04:27:56.021Z,99837.30
2023-03-31T04:30:29.281Z,99829.38
2023-03-31T04:33:01.665Z,99822.12
2023-03-31T04:35:34.255Z,99810.23
2023-03-31T04:38:06.410Z,99813.97
2023-03-31T04:40:36.564Z,99793.06
2023-03-31T04:43:06.184Z,99794.58
2023-03-31T04:45:36.016Z,99781.45
2023-03-31T04:48:08.066Z,99780.19
2023-03-31T04:50:38.414Z,99765.38
2023-03-31T04:53:08.767Z,99765.38
2023-03-31T04:55:38.845Z,99758.11
2023-03-31T04:58:10.960Z,99762.52
2023-03-31T05:00:40.802Z,99752.64
2023-03-31T05:03:10.686Z,99751.63
2023-03-31T05:05:40.743Z,99741.59
2023-03-31T05:08:11.956Z,99743.92
2023-03-31T05:10:41.780Z,99734.77
2023-03-31T05:13:12.381Z,99726.66
2023-03-31T05:15:43.887Z,99717.41
2023-03-31T05:18:13.669Z,99719.08
2023-03-31T05:20:43.469Z,99706.78
2023-03-31T05:23:14.134Z,99695.97
2023-03-31T05:25:43.953Z,99693.77
2023-03-31T05:28:13.750Z,99697.44
2023-03-31T05:30:43.929Z,99697.44
2023-03-31T05:33:14.398Z,99694.84
2023-03-31T05:35:45.282Z,99689.28
2023-03-31T05:38:14.972Z,99684.97
2023-03-31T05:40:44.750Z,99671.29
2023-03-31T05:43:14.648Z,99671.29
2023-03-31T05:45:44.475Z,99667.61
2023-03-31T05:48:13.972Z,99657.69
2023-03-31T05:50:44.152Z,99647.24
2023-03-31T05:53:14.205Z,99657.77
2023-03-31T05:55:44.021Z,99644.11
2023-03-31T05:58:13.835Z,99647.56
2023-03-31T06:00:44.538Z,99648.01
2023-03-31T06:03:14.869Z,99648.01
2023-03-31T06:05:49.488Z,99640.19
2023-03-31T06:08:19.061Z,99640.61
2023-03-31T06:10:48.871Z,99637.55
2023-03-31T06:13:18.666Z,99636.52
2023-03-31T06:16:01.795Z,99642.20
2023-03-31T06:18:33.720Z,99641.19
2023-03-31T06:21:03.941Z,99645.67
2023-03-31T06:23:34.689Z,99635.03
2023-03-31T06:26:08.760Z,99630.41
2023-03-31T06:28:38.570Z,99630.17
2023-03-31T06:31:12.634Z,99630.17
2023-03-31T06:33:44.091Z,99637.95
2023-03-31T06:36:16.404Z,99631.91
2023-03-31T06:38:46.934Z,99633.31
2023-03-31T06:41:18.342Z,99629.27
2023-03-31T06:43:48.260Z,99617.96
2023-03-31T06:46:19.471Z,99623.01
2023-03-31T06:48:49.311Z,99616.80
2023-03-31T06:51:19.312Z,99619.52
2023-03-31T06:53:49.231Z,99609.31
2023-03-31T06:56:18.753Z,99598.76
2023-03-31T06:58:48.692Z,99591.39
2023-03-31T07:01:18.552Z,99591.39
2023-03-31T07:03:48.501Z,99583.81
2023-03-31T07:06:18.392Z,99578.53
2023-03-31T07:08:48.265Z,99573.81
2023-03-31T07:11:21.060Z,99579.77
2023-03-31T07:13:49.604Z,99578.50
2023-03-31T07:16:19.190Z,99583.58
2023-03-31T07:18:50.366Z,99577.95
2023-03-31T07:21:20.194Z,99579.02
2023-03-31T07:23:50.029Z,99576.75
2023-03-31T07:26:19.816Z,99574.06
2023-03-31T07:28:49.721Z,99569.92
2023-03-31T07:31:19.844Z,99561.04
2023-03-31T07:33:49.604Z,99558.72
2023-03-31T07:36:19.391Z,99550.66
2023-03-31T07:38:49.762Z,99549.86
2023-03-31T07:41:21.707Z,99543.53
2023-03-31T07:43:51.990Z,99544.28
2023-03-31T07:46:24.964Z,99532.39
2023-03-31T07:48:56.803Z,99529.37
2023-03-31T07:51:27.834Z,99532.52
2023-03-31T07:53:57.745Z,99534.34
2023-03-31T07:56:27.855Z,99530.33
2023-03-31T07:58:57.975Z,99530.37
2023-03-31T08:01:29.790Z,99532.88
2023-03-31T08:03:59.786Z,99523.60
2023-03-31T08:06:30.047Z,99531.01
2023-03-31T08:09:00.749Z,99528.86
2023-03-31T08:11:30.881Z,99532.12
2023-03-31T08:14:00.913Z,99526.59
2023-03-31T08:16:30.835Z,99514.78
2023-03-31T08:19:01.467Z,99514.78
2023-03-31T08:21:32.095Z,99521.29
2023-03-31T08:24:02.072Z,99516.87
2023-03-31T08:26:32.844Z,99517.19
2023-03-31T08:29:04.103Z,99505.23
2023-03-31T08:31:34.083Z,99505.23
2023-03-31T08:34:05.494Z,99509.17
2023-03-31T08:36:36.117Z,99508.61
2023-03-31T08:39:07.462Z,99503.29
2023-03-31T08:41:52.135Z,99512.28
2023-03-31T08:44:39.407Z,99505.32
2023-03-31T08:47:12.271Z,99501.30
2023-03-31T08:49:54.283Z,99503.45
2023-03-31T08:52:29.964Z,99503.88
2023-03-31T08:55:06.590Z,99506.09
2023-03-31T08:57:44.314Z,99501.67
2023-03-31T09:00:19.515Z,99489.25
2023-03-31T09:02:55.512Z,99501.10
2023-03-31T09:05:43.400Z,99496.85
2023-03-31T09:08:19.353Z,99501.02
2023-03-31T09:10:51.913Z,99498.96
2023-03-31T09:13:47.566Z,99495.80
2023-03-31T09:16:19.425Z,99478.48
2023-03-31T09:18:49.277Z,99487.67
2023-03-31T09:21:34.026Z,99490.30
2023-03-31T09:24:08.104Z,99491.52
2023-03-31T09:26:41.111Z,99480.41
2023-03-31T09:29:30.047Z,99477.39
2023-03-31T09:32:17.279Z,99471.94
2023-03-31T09:34:49.630Z,99470.89
2023-03-31T09:37:19.497Z,99467.91
2023-03-31T09:39:49.549Z,99465.86
2023-03-31T09:42:19.859Z,99466.78
2023-03-31T09:44:50.573Z,99460.19
2023-03-31T09:47:36.986Z,99461.20
2023-03-31T09:50:10.478Z,99459.73
2023-03-31T09:52:45.997Z,99464.52
2023-03-31T09:55:39.568Z,99453.02
2023-03-31T09:58:07.330Z,99454.98
2023-03-31T10:00:39.422Z,99462.30
2023-03-31T10:03:12.702Z,99442.92
2023-03-31T10:05:51.255Z,99438.55
2023-03-31T10:08:30.246Z,99452.11
2023-03-31T10:11:07.003Z,99451.36
2023-03-31T10:13:42.621Z,99454.63
2023-03-31T10:16:15.228Z,99453.70
2023-03-31T10:18:45.340Z,99446.31
2023-03-31T10:21:27.016Z,99455.31
2023-03-31T10:23:58.354Z,99446.88
2023-03-31T10:26:29.717Z,99449.72
2023-03-31T10:28:59.492Z,99439.86
2023-03-31T10:31:37.725Z,99439.94
2023-03-31T10:34:16.492Z,99430.13
2023-03-31T10:36:49.120Z,99431.98
2023-03-31T10:39:20.187Z,99433.59
2023-03-31T10:41:54.616Z,99434.66
2023-03-31T10:44:37.034Z,99426.19
2023-03-31T10:47:12.683Z,99422.41
2023-03-31T10:49:44.220Z,99425.66
2023-03-31T10:52:19.951Z,99424.29
2023-03-31T10:54:52.591Z,99427.25
2023-03-31T10:57:26.558Z,99414.24
2023-03-31T11:00:15.092Z,99416.16
2023-03-31T11:02:51.200Z,99411.20
2023-03-31T11:05:25.335Z,99415.33
2023-03-31T11:08:04.153Z,99418.30
2023-03-31T11:10:54.476Z,99411.98
2023-03-31T11:13:39.209Z,99405.50
2023-03-31T11:18:57.036Z,99405.61
2023-03-31T11:21:35.577Z,99391.55
2023-03-31T11:24:20.565Z,99401.78
2023-03-31T11:27:09.229Z,99396.99
2023-03-31T11:29:45.398Z,99388.27
2023-03-31T11:32:31.511Z,99388.27
2023-03-31T11:35:09.840Z,99387.62
2023-03-31T11:37:53.907Z,99387.03
2023-03-31T11:40:29.349Z,99387.03
2023-03-31T11:43:08.138Z,99379.88
2023-03-31T11:45:41.137Z,99371.78
2023-03-31T11:48:15.942Z,99374.02
2023-03-31T11:50:48.073Z,99371.78
2023-03-31T11:53:23.626Z,99371.78
2023-03-31T11:55:56.341Z,99363.58
2023-03-31T11:58:40.920Z,99360.34
2023-03-31T12:01:28.040Z,99352.97
2023-03-31T12:04:09.818Z,99361.19
2023-03-31T12:06:42.962Z,99343.34
2023-03-31T12:09:24.501Z,99349.16
2023-03-31T12:12:06.230Z,99344.73
2023-03-31T12:14:55.635Z,99329.64
2023-03-31T12:17:29.146Z,99329.64
2023-03-31T12:20:04.789Z,99331.56
2023-03-31T12:22:38.913Z,99346.89
2023-03-31T12:25:13.301Z,99333.95
2023-03-31T12:27:44.787Z,99333.28
2023-03-31T12:30:23.121Z,99327.83
2023-03-31T12:32:56.405Z,99340.97
2023-03-31T12:35:49.829Z,99321.82
2023-03-31T12:38:58.122Z,99318.12
2023-03-31T12:41:33.721Z,99321.72
2023-03-31T12:44:25.298Z,99323.33
2023-03-31T12:47:09.933Z,99327.35
2023-03-31T12:50:16.714Z,99318.75
2023-03-31T12:53:18.308Z,99327.47
2023-03-31T12:55:53.732Z,99313.11
2023-03-31T12:58:33.541Z,99311.09
2023-03-31T13:01:12.302Z,99296.38
2023-03-31T13:03:45.635Z,99296.59
2023-03-31T13:06:30.408Z,99300.16
2023-03-31T13:09:07.502Z,99285.77
2023-03-31T13:11:40.509Z,99299.78
2023-03-31T13:14:27.147Z,99278.91
2023-03-31T13:17:14.369Z,99278.91
2023-03-31T13:19:46.004Z,99288.37
2023-03-31T13:22:35.763Z,99269.41
2023-03-31T13:25:29.307Z,99280.17
2023-03-31T13:28:01.795Z,99277.08
2023-03-31T13:30:43.170Z,99275.89
2023-03-31T13:33:35.399Z,99279.18
2023-03-31T13:36:24.922Z,99277.67
2023-03-31T13:39:18.846Z,99263.18
2023-03-31T13:42:03.790Z,99273.81
2023-03-31T13:44:42.099Z,99271.61
2023-03-31T13:47:31.436Z,99273.72
2023-03-31T13:50:21.959Z,99286.67
2023-03-31T13:52:58.064Z,99270.59
2023-03-31T13:55:46.670Z,99272.84
2023-03-31T13:58:33.683Z,99266.60
2023-03-31T14:01:23.533Z,99262.93
2023-03-31T14:04:08.116Z,99256.32
2023-03-31T14:06:52.395Z,99256.14
2023-03-31T14:09:36.488Z,99259.26
2023-03-31T14:12:23.979Z,99254.03
2023-03-31T14:14:56.805Z,99261.09
2023-03-31T14:17:29.559Z,99253.39
2023-03-31T14:20:04.351Z,99253.39
2023-03-31T14:22:57.955Z,99254.98
2023-03-31T14:25:54.730Z,99255.86
2023-03-31T14:28:36.351Z,99258.05
2023-03-31T14:31:37.427Z,99246.77
2023-03-31T14:34:19.401Z,99258.11
2023-03-31T14:37:14.308Z,99242.58
2023-03-31T14:39:47.562Z,99242.92
2023-03-31T14:42:20.623Z,99240.77
2023-03-31T14:44:50.410Z,99241.78
2023-03-31T14:47:26.133Z,99234.77
2023-03-31T14:50:18.815Z,99236.16
2023-03-31T14:52:50.934Z,99235.95
2023-03-31T14:55:31.753Z,99240.45
2023-03-31T14:58:01.463Z,99242.19
2023-03-31T15:00:33.755Z,99242.19
2023-03-31T15:03:07.183Z,99239.16
2023-03-31T15:05:39.279Z,99234.47
2023-03-31T15:08:17.170Z,99242.71
2023-03-31T15:10:54.077Z,99242.88
2023-03-31T15:13:31.036Z,99234.05
2023-03-31T15:16:01.208Z,99233.00
2023-03-31T15:18:30.871Z,99240.73
2023-03-31T15:21:00.981Z,99234.66
2023-03-31T15:23:30.987Z,99227.30
2023-03-31T15:26:08.965Z,99228.09
2023-03-31T15:28:42.746Z,99230.73
2023-03-31T15:31:14.369Z,99230.73
2023-03-31T15:33:44.842Z,99226.08
2023-03-31T15:36:15.947Z,99217.06
2023-03-31T15:38:46.325Z,99233.22
2023-03-31T15:41:18.011Z,99222.55
2023-03-31T15:43:53.049Z,99222.19
2023-03-31T15:46:28.257Z,99222.19
2023-03-31T15:48:58.413Z,99221.83
2023-03-31T15:51:42.313Z,99224.27
2023-03-31T15:54:31.753Z,99231.20
2023-03-31T15:57:03.501Z,99235.38
2023-03-31T15:59:55.434Z,99223.43
2023-03-31T16:02:29.281Z,99229.91
2023-03-31T16:05:02.779Z,99230.19
2023-03-31T16:07:35.476Z,99223.81
2023-03-31T16:10:22.139Z,99226.76
2023-03-31T16:12:57.573Z,99227.11
2023-03-31T16:15:36.044Z,99227.44
2023-03-31T16:18:12.118Z,99226.20
2023-03-31T16:20:46.057Z,99227.00
2023-03-31T16:23:21.975Z,99221.28
2023-03-31T16:25:52.531Z,99219.49
2023-03-31T16:28:26.088Z,99215.20
2023-03-31T16:30:56.220Z,99208.35
2023-03-31T16:33:26.543Z,99216.13
2023-03-31T16:35:57.549Z,99220.08
2023-03-31T16:38:29.837Z,99208.81
2023-03-31T16:41:00.688Z,99215.13
2023-03-31T16:43:31.757Z,99213.50
2023-03-31T16:46:03.982Z,99203.38
2023-03-31T16:48:34.694Z,99205.33
2023-03-31T16:51:04.968Z,99203.11
2023-03-31T16:53:37.122Z,99209.65
2023-03-31T16:56:08.772Z,99194.74
2023-03-31T16:58:40.520Z,99195.24
2023-03-31T17:01:12.463Z,99191.27
2023-03-31T17:03:43.185Z,99193.50
2023-03-31T17:06:14.872Z,99185.37
2023-03-31T17:08:44.679Z,99186.84
2023-03-31T17:11:15.925Z,99180.75
2023-03-31T17:13:46.486Z,99184.13
2023-03-31T17:16:24.444Z,99185.06
2023-03-31T17:18:49.811Z,99187.05
2023-03-31T17:21:21.863Z,99187.05
2023-03-31T17:23:52.286Z,99185.35
2023-03-31T17:26:22.446Z,99181.62
2023-03-31T17:28:52.578Z,99187.23
2023-03-31T17:31:24.336Z,99182.69
2023-03-31T17:33:54.470Z,99183.88
2023-03-31T17:36:24.338Z,99183.88
2023-03-31T17:38:55.206Z,99181.06
2023-03-31T17:41:25.253Z,99184.59
2023-03-31T17:43:59.011Z,99175.23
2023-03-31T17:46:29.068Z,99186.13
2023-03-31T17:48:59.553Z,99185.53
2023-03-31T17:51:29.087Z,99184.70
2023-03-31T17:53:59.230Z,99192.24
2023-03-31T17:56:29.305Z,99187.52
2023-03-31T17:58:59.409Z,99184.91
2023-03-31T18:01:29.605Z,99174.92
2023-03-31T18:03:59.505Z,99175.86
2023-03-31T18:06:29.301Z,99181.58
2023-03-31T18:08:59.102Z,99179.18
2023-03-31T18:11:29.336Z,99183.85
2023-03-31T18:14:01.141Z,99185.16
2023-03-31T18:16:32.080Z,99185.16
2023-03-31T18:19:02.076Z,99178.48
2023-03-31T18:21:31.865Z,99186.13
2023-03-31T18:24:02.652Z,99186.98
2023-03-31T18:26:32.569Z,99186.98
2023-03-31T18:29:02.983Z,99181.09
2023-03-31T18:31:32.904Z,99175.29
2023-03-31T18:34:02.805Z,99178.39
2023-03-31T18:36:32.966Z,99187.27
2023-03-31T18:39:04.029Z,99180.64
2023-03-31T18:41:33.810Z,99176.89
2023-03-31T18:44:03.696Z,99179.88
2023-03-31T18:46:33.643Z,99179.42
2023-03-31T18:49:03.638Z,99180.05
2023-03-31T18:51:33.465Z,99181.94
2023-03-31T18:54:03.640Z,99185.03
2023-03-31T18:56:33.492Z,99185.03
2023-03-31T18:59:04.829Z,99189.31
2023-03-31T19:01:36.308Z,99184.52
2023-03-31T19:04:06.321Z,99183.84
2023-03-31T19:06:36.437Z,99187.49
2023-03-31T19:09:06.324Z,99185.77
2023-03-31T19:11:36.501Z,99195.02
2023-03-31T19:14:06.725Z,99193.34
2023-03-31T19:16:38.305Z,99182.75
2023-03-31T19:19:08.179Z,99182.29
2023-03-31T19:21:38.628Z,99177.52
2023-03-31T19:24:09.161Z,99181.28
2023-03-31T19:26:39.645Z,99187.06
2023-03-31T19:29:09.730Z,99185.92
2023-03-31T19:31:40.657Z,99179.89
2023-03-31T19:34:11.739Z,99190.23
2023-03-31T19:36:41.829Z,99186.55
2023-03-31T19:39:12.067Z,99190.20
2023-03-31T19:41:41.939Z,99191.63
2023-03-31T19:44:13.454Z,99183.92
2023-03-31T19:46:43.393Z,99186.27
2023-03-31T19:49:13.476Z,99188.08
2023-03-31T19:51:43.364Z,99190.45
2023-03-31T19:54:15.320Z,99190.36
2023-03-31T19:56:45.788Z,99188.20
2023-03-31T19:59:16.018Z,99179.89
2023-03-31T20:01:46.099Z,99180.11
2023-03-31T20:04:18.031Z,99183.98
2023-03-31T20:06:49.589Z,99174.43
2023-03-31T20:09:19.539Z,99178.66
2023-03-31T20:11:49.511Z,99177.83
2023-03-31T20:14:19.412Z,99169.36
2023-03-31T20:16:50.991Z,99179.61
2023-03-31T20:19:22.366Z,99170.63
2023-03-31T20:21:55.256Z,99170.88
2023-03-31T20:24:27.193Z,99170.88
2023-03-31T20:26:57.292Z,99163.87
2023-03-31T20:29:27.415Z,99162.54
2023-03-31T20:31:57.349Z,99170.22
2023-03-31T20:34:27.545Z,99166.12
2023-03-31T20:36:57.251Z,99159.33
2023-03-31T20:39:27.359Z,99164.54
2023-03-31T20:41:57.161Z,99164.41
2023-03-31T20:44:27.636Z,99165.20
2023-03-31T20:46:59.027Z,99168.05
2023-03-31T20:49:29.241Z,99166.84
2023-03-31T20:51:59.520Z,99164.41
2023-03-31T20:54:29.680Z,99164.41
2023-03-31T20:57:01.188Z,99162.44
2023-03-31T20:59:31.398Z,99164.57
2023-03-31T21:02:01.197Z,99162.25
2023-03-31T21:04:30.867Z,99159.08
2023-03-31T21:07:01.059Z,99167.74
2023-03-31T21:09:31.342Z,99159.34
2023-03-31T21:12:02.659Z,99159.55
2023-03-31T21:14:33.101Z,99163.05
2023-03-31T21:17:03.170Z,99160.48
2023-03-31T21:19:33.386Z,99167.97
2023-03-31T21:22:03.189Z,99156.89
2023-03-31T21:24:33.323Z,99156.53
2023-03-31T21:27:03.192Z,99151.78
2023-03-31T21:29:33.762Z,99163.60
2023-03-31T21:32:03.646Z,99160.89
2023-03-31T21:34:33.800Z,99143.62
2023-03-31T21:37:03.576Z,99150.10
2023-03-31T21:39:33.702Z,99146.42
2023-03-31T21:42:04.430Z,99144.52
2023-03-31T21:44:34.491Z,99144.77
2023-03-31T21:47:04.364Z,99153.55
2023-03-31T21:49:34.498Z,99148.30
2023-03-31T21:52:05.156Z,99140.23
2023-03-31T21:54:35.371Z,99144.55
2023-03-31T21:57:05.206Z,99145.22
2023-03-31T21:59:35.397Z,99146.96
2023-03-31T22:02:06.235Z,99147.63
2023-03-31T22:04:36.659Z,99147.88
2023-03-31T22:07:06.848Z,99154.44
2023-03-31T22:09:37.115Z,99142.55
2023-03-31T22:12:07.059Z,99157.12
2023-03-31T22:14:38.530Z,99145.75
2023-03-31T22:17:08.354Z,99153.47
2023-03-31T22:19:38.234Z,99149.17
2023-03-31T22:22:08.706Z,99155.68
2023-03-31T22:24:38.523Z,99153.39
2023-03-31T22:27:08.468Z,99154.43
2023-03-31T22:29:38.287Z,99152.55
2023-03-31T22:32:08.210Z,99147.34
2023-03-31T22:34:38.014Z,99146.68
2023-03-31T22:37:07.840Z,99150.27
2023-03-31T22:39:37.646Z,99151.08
2023-03-31T22:42:07.687Z,99151.05
2023-03-31T22:44:40.114Z,99146.33
2023-03-31T22:47:10.340Z,99146.16
2023-03-31T22:49:40.718Z,99147.88
2023-03-31T22:52:10.958Z,99143.62
2023-03-31T22:54:41.186Z,99145.50
2023-03-31T22:57:11.630Z,99136.99
2023-03-31T22:59:41.935Z,99145.46
2023-03-31T23:02:11.737Z,99149.94
2023-03-31T23:04:41.734Z,99156.38
2023-03-31T23:07:11.722Z,99152.97
2023-03-31T23:09:41.598Z,99152.56
2023-03-31T23:12:11.447Z,99149.25
2023-03-31T23:14:41.259Z,99154.65
2023-03-31T23:17:11.260Z,99144.13
2023-03-31T23:19:41.709Z,99152.64
2023-03-31T23:22:11.542Z,99152.21
2023-03-31T23:24:41.642Z,99150.06
2023-03-31T23:27:11.542Z,99151.25
2023-03-31T23:29:41.430Z,99144.35
2023-03-31T23:32:14.550Z,99149.55
2023-03-31T23:34:44.450Z,99148.61
2023-03-31T23:37:15.563Z,99150.80
2023-03-31T23:39:45.522Z,99148.83
2023-03-31T23:42:18.258Z,99149.55
2023-03-31T23:44:48.282Z,99144.92
2023-03-31T23:47:18.085Z,99154.87
2023-03-31T23:49:47.891Z,99159.50
2023-03-31T23:52:19.047Z,99159.50
2023-03-31T23:54:48.854Z,99155.05
2023-03-31T23:57:21.111Z,99146.83
2023-03-31T23:59:52.322Z,99152.78
